Port Ewen, New York
Current Conditions -  °F | °C
As of 8:53 AM on Tuesday 21 Oct 2014 (Local Time) from KPOU Reporting Station
Overcast Overcast  
Wind Chill: 51°   Ceiling: 6500
Heat Index: 51°   Visibility: 10mi
Dew Point: 47°   Wind: 0mph
Humidity: 86%   Direction: NA
Pressure: 29.91"   Gusts: NA
Location:  41.91°N, 73.98°W
Report Text: KPOU 211253Z AUTO 00000KT 10SM OVC065 11/08 A2991 RMK AO2 RAB27E44 SLP124 P0000 T01060083 TSNO
Loading
Personal Weather Stations






























Interactive Weather Map
Tropical Storm Tracking
New forecast layout! Learn more

10-Day Weather Forecast

Advertisements
Track Severe Weather on mobile